Where is Monte da Ribeira in Portugal?

 

Monte da Ribeira is situated in the region Evora in Portugal!

Search the name of a city:

Monte Grande, Monte Chaaué, Montgothier, Monte Taca Coconga, Monte Zoncolan

Here you will find the location of Monte da Ribeira on a map.
To see how it currently looks like outside, below are some pictures of the area from online web cameras.
You can also find the distance to the main cities in the region and to cities in the rest of Portugal.

World Cities
Cities in Portugal that are also found in other countries in the world.


Where is Monte da Ribeira on the map?




Webcams near Monte da Ribeira

Arraiolos › North-East.


Arraiolos › North-East - Day time
Current
Arraiolos › North-East - Current

Benavente › North-East: Santarém - AIrport, METAR: BENAV 180005Z 36004KT 17/14 Q1015.


Benavente › North-East: Santarém - AIrport, METAR: BENAV 180005Z 36004KT 17/14 Q1015 - Day time
Current
Benavente › North-East: Santarém - AIrport, METAR: BENAV 180005Z 36004KT 17/14 Q1015 - Current

Setúbal.


Setúbal - Day time
Current
Setúbal - Current

Webcams provided by windy.comadd a webcam


Distances

Where is Monte da Ribeira relative to other places?

Top 10 cities in Evora and distance from Monte da Ribeira.

City#Populationkmmiles
Évora1458514729
Montemor-o-Novo2128541811
Vendas Novas31124853
Estremoz493497245
Reguengos de Monsaraz572178251
Redondo658457446
Vila Viçosa754848553
Borba845868452
Adaval9-6943
Agua d' Alte10-7245

Top 10 cities in Portugal and distance from Monte da Ribeira.

City # Populationkmmiles
Lisbon15177986339
Porto2249630272169
Amadora31788567245
Braga4121393317197
Setúbal51171094729
Coimbra6106580167104
Queluz71033987446
Funchal8980411022635
Vila Nova de Gaia970810270168
Loures10662306842



Alerts and advice Portugal

Advice and information about traveling and security in Portugal.

With a travel advise, tourists can be informed about security risks during traveling or vacation in a foreign country. Be informed about the risks of kidnapping, armed robbery, bombings, natural disasters or war. Know which areas are unsafe in Portugalo. Be vigilant, or avoid certain areas when on vacation in Portugal.

Alerts and advice



Travel information Portugal

Information on travel documents, visa applications and the cost of a visa.
Contact information of embassies in Portugal.
Different types of travel insurance.

Travel information

Info

Statistics and Geographics

Portugal is made up of 15299 cities in 20 regions.

The region Evora has 425 cities.

Monte da Ribeira is number 215 in the region Evora.

The city is number 8519 in Portugal.

Where is Monte da Ribeira in Portugal?